createdAt,value
2023-05-19T00:00:56.388Z,5.32
2023-05-19T00:03:27.179Z,4.75
2023-05-19T00:08:32.820Z,5.43
2023-05-19T00:11:02.625Z,4.93
2023-05-19T00:13:33.666Z,4.80
2023-05-19T00:16:03.409Z,4.70
2023-05-19T00:18:32.542Z,4.28
2023-05-19T00:21:01.689Z,4.40
2023-05-19T00:23:30.997Z,4.10
2023-05-19T00:25:59.908Z,3.78
2023-05-19T00:28:28.896Z,3.85
2023-05-19T00:30:59.346Z,3.60
2023-05-19T00:33:28.422Z,3.80
2023-05-19T00:35:57.553Z,3.08
2023-05-19T00:38:26.665Z,3.60
2023-05-19T00:40:55.960Z,2.80
2023-05-19T00:43:25.063Z,2.97
2023-05-19T00:45:54.464Z,2.88
2023-05-19T00:48:26.132Z,2.63
2023-05-19T00:51:02.347Z,2.47
2023-05-19T00:53:33.201Z,2.78
2023-05-19T00:56:04.300Z,3.88
2023-05-19T00:58:34.966Z,3.83
2023-05-19T01:01:07.017Z,3.42
2023-05-19T01:03:38.105Z,3.47
2023-05-19T01:06:08.086Z,3.45
2023-05-19T01:08:38.669Z,3.45
2023-05-19T01:11:08.641Z,3.10
2023-05-19T01:13:41.102Z,2.83
2023-05-19T01:16:15.411Z,3.95
2023-05-19T01:18:56.445Z,3.10
2023-05-19T01:22:07.004Z,2.83
2023-05-19T01:25:13.311Z,3.00
2023-05-19T01:28:13.133Z,2.50
2023-05-19T01:30:44.757Z,2.75
2023-05-19T01:33:16.473Z,3.17
2023-05-19T01:35:48.551Z,3.30
2023-05-19T01:38:19.994Z,1.95
2023-05-19T01:40:51.644Z,1.88
2023-05-19T01:43:23.354Z,2.00
2023-05-19T01:45:54.261Z,1.77
2023-05-19T01:48:24.711Z,2.20
2023-05-19T01:50:53.892Z,2.03
2023-05-19T01:53:22.988Z,1.88
2023-05-19T01:55:56.166Z,2.10
2023-05-19T01:58:35.273Z,2.03
2023-05-19T02:01:17.840Z,1.70
2023-05-19T02:04:03.522Z,1.20
2023-05-19T02:09:16.890Z,1.10
2023-05-19T02:11:53.410Z,1.20
2023-05-19T02:14:30.114Z,1.30
2023-05-19T02:17:02.094Z,2.22
2023-05-19T02:19:33.437Z,2.42
2023-05-19T02:22:02.578Z,2.00
2023-05-19T02:24:31.649Z,2.10
2023-05-19T02:27:01.675Z,2.22
2023-05-19T02:29:31.009Z,2.40
2023-05-19T02:32:02.614Z,1.90
2023-05-19T02:34:31.871Z,1.92
2023-05-19T02:37:01.419Z,1.80
2023-05-19T02:39:35.340Z,1.88
2023-05-19T02:42:04.681Z,1.60
2023-05-19T02:44:33.780Z,2.00
2023-05-19T02:47:04.171Z,2.28
2023-05-19T02:49:36.210Z,1.70
2023-05-19T02:52:06.199Z,1.80
2023-05-19T02:54:36.169Z,1.75
2023-05-19T02:57:05.522Z,2.05
2023-05-19T02:59:34.609Z,2.35
2023-05-19T03:02:05.271Z,2.53
2023-05-19T03:04:41.769Z,2.25
2023-05-19T03:07:13.425Z,2.50
2023-05-19T03:09:42.596Z,2.67
2023-05-19T03:12:11.850Z,2.55
2023-05-19T03:14:41.318Z,1.90
2023-05-19T03:17:12.552Z,2.55
2023-05-19T03:19:41.661Z,2.85
2023-05-19T03:22:10.785Z,2.58
2023-05-19T03:24:40.190Z,2.28
2023-05-19T03:27:09.854Z,2.75
2023-05-19T03:29:39.422Z,2.03
2023-05-19T03:32:09.052Z,3.00
2023-05-19T03:34:40.316Z,2.72
2023-05-19T03:37:10.863Z,2.80
2023-05-19T03:39:41.757Z,2.78
2023-05-19T03:42:11.126Z,2.80
2023-05-19T03:44:40.172Z,2.53
2023-05-19T03:47:09.324Z,2.50
2023-05-19T03:49:42.450Z,2.72
2023-05-19T03:52:31.566Z,2.35
2023-05-19T03:55:16.501Z,2.65
2023-05-19T03:57:45.628Z,2.60
2023-05-19T04:00:15.623Z,2.55
2023-05-19T04:02:44.850Z,2.60
2023-05-19T04:05:15.897Z,3.05
2023-05-19T04:07:46.766Z,2.55
2023-05-19T04:10:16.207Z,2.63
2023-05-19T04:12:45.232Z,2.60
2023-05-19T04:15:14.250Z,3.00
2023-05-19T04:17:43.614Z,2.70
2023-05-19T04:20:15.057Z,2.58
2023-05-19T04:22:44.119Z,2.67
2023-05-19T04:25:13.440Z,2.20
2023-05-19T04:27:42.694Z,2.63
2023-05-19T04:30:13.287Z,2.83
2023-05-19T04:32:42.502Z,2.67
2023-05-19T04:35:13.848Z,2.60
2023-05-19T04:37:46.216Z,2.47
2023-05-19T04:40:17.555Z,2.70
2023-05-19T04:42:46.875Z,3.47
2023-05-19T04:45:16.018Z,3.50
2023-05-19T04:47:49.460Z,2.78
2023-05-19T04:50:19.503Z,3.50
2023-05-19T04:52:50.207Z,3.03
2023-05-19T04:55:19.342Z,3.33
2023-05-19T04:57:50.023Z,3.80
2023-05-19T05:00:20.662Z,2.90
2023-05-19T05:03:05.385Z,3.20
2023-05-19T05:05:36.046Z,3.53
2023-05-19T05:08:07.420Z,3.72
2023-05-19T05:10:42.339Z,3.17
2023-05-19T05:13:12.216Z,4.03
2023-05-19T05:15:42.158Z,3.72
2023-05-19T05:18:13.200Z,3.85
2023-05-19T05:20:43.218Z,3.53
2023-05-19T05:23:16.920Z,3.35
2023-05-19T05:25:49.084Z,4.07
2023-05-19T05:28:19.186Z,4.95
2023-05-19T05:30:50.431Z,3.38
2023-05-19T05:33:22.482Z,3.42
2023-05-19T05:35:51.700Z,3.50
2023-05-19T05:38:22.359Z,2.80
2023-05-19T05:40:51.636Z,3.10
2023-05-19T05:43:21.749Z,3.65
2023-05-19T05:45:56.688Z,3.30
2023-05-19T05:48:26.726Z,4.10
2023-05-19T05:50:57.843Z,4.22
2023-05-19T05:53:35.737Z,4.32
2023-05-19T05:56:06.219Z,3.75
2023-05-19T05:58:44.306Z,4.50
2023-05-19T06:01:13.516Z,4.70
2023-05-19T06:03:45.196Z,4.38
2023-05-19T06:06:17.870Z,4.07
2023-05-19T06:08:48.843Z,3.83
2023-05-19T06:11:19.732Z,4.57
2023-05-19T06:13:49.994Z,3.90
2023-05-19T06:19:04.632Z,4.60
2023-05-19T06:21:33.984Z,4.38
2023-05-19T06:24:04.735Z,4.28
2023-05-19T06:26:33.960Z,4.30
2023-05-19T06:29:03.322Z,4.30
2023-05-19T06:31:34.600Z,4.53
2023-05-19T06:34:15.055Z,4.22
2023-05-19T06:36:44.442Z,4.50
2023-05-19T06:39:16.276Z,4.63
2023-05-19T06:41:45.692Z,4.63
2023-05-19T06:44:34.435Z,4.30
2023-05-19T06:47:03.707Z,4.72
2023-05-19T06:49:32.856Z,4.78
2023-05-19T06:52:02.415Z,4.63
2023-05-19T06:54:33.183Z,3.95
2023-05-19T06:57:02.512Z,4.88
2023-05-19T06:59:31.718Z,4.50
2023-05-19T07:02:02.603Z,4.53
2023-05-19T07:04:31.853Z,5.05
2023-05-19T07:07:00.918Z,4.93
2023-05-19T07:09:30.396Z,3.95
2023-05-19T07:12:01.580Z,3.28
2023-05-19T07:14:31.935Z,3.20
2023-05-19T07:17:02.776Z,2.80
2023-05-19T07:19:32.061Z,3.38
2023-05-19T07:22:01.080Z,3.28
2023-05-19T07:24:31.146Z,3.05
2023-05-19T07:27:02.649Z,3.45
2023-05-19T07:29:31.884Z,3.05
2023-05-19T07:32:00.991Z,3.40
2023-05-19T07:34:30.095Z,3.03
2023-05-19T07:36:59.217Z,2.72
2023-05-19T07:39:31.082Z,3.22
2023-05-19T07:42:04.196Z,3.83
2023-05-19T07:44:33.563Z,2.83
2023-05-19T07:47:03.208Z,3.28
2023-05-19T07:49:32.695Z,3.65
2023-05-19T07:52:01.959Z,3.92
2023-05-19T07:54:31.379Z,3.20
2023-05-19T07:57:02.029Z,3.67
2023-05-19T07:59:31.534Z,3.75
2023-05-19T08:02:00.782Z,3.72
2023-05-19T08:04:30.168Z,3.63
2023-05-19T08:12:10.793Z,4.32
2023-05-19T08:14:39.910Z,3.95
2023-05-19T08:17:08.961Z,4.30
2023-05-19T08:19:38.182Z,4.40
2023-05-19T08:22:07.498Z,4.45
2023-05-19T08:24:36.702Z,4.18
2023-05-19T08:27:06.987Z,4.63
2023-05-19T08:29:39.213Z,4.93
2023-05-19T08:32:11.500Z,4.60
2023-05-19T08:34:42.528Z,5.22
2023-05-19T08:37:12.120Z,4.38
2023-05-19T08:39:41.581Z,4.55
2023-05-19T08:42:11.786Z,4.30
2023-05-19T08:44:44.191Z,4.43
2023-05-19T08:47:14.142Z,5.00
2023-05-19T08:49:46.569Z,4.72
2023-05-19T08:52:24.665Z,4.72
2023-05-19T08:55:01.166Z,5.18
2023-05-19T08:57:30.837Z,4.93
2023-05-19T09:00:02.405Z,4.82
2023-05-19T09:02:33.972Z,4.78
2023-05-19T09:05:03.565Z,5.38
2023-05-19T09:07:34.886Z,4.72
2023-05-19T09:10:04.170Z,5.03
2023-05-19T09:12:34.917Z,5.40
2023-05-19T09:15:06.560Z,4.93
2023-05-19T09:17:37.685Z,5.43
2023-05-19T09:20:11.666Z,4.93
2023-05-19T09:22:45.465Z,4.97
2023-05-19T09:25:21.743Z,5.32
2023-05-19T09:27:51.350Z,4.35
2023-05-19T09:30:21.936Z,4.60
2023-05-19T09:32:53.070Z,4.07
2023-05-19T09:35:22.277Z,4.95
2023-05-19T09:37:51.322Z,4.40
2023-05-19T09:40:20.602Z,4.75
2023-05-19T09:42:50.003Z,4.93
2023-05-19T09:45:19.032Z,4.97
2023-05-19T09:47:49.650Z,4.93
2023-05-19T09:50:18.872Z,4.47
2023-05-19T09:52:49.028Z,4.22
2023-05-19T09:55:18.917Z,4.50
2023-05-19T09:57:49.203Z,4.60
2023-05-19T10:00:19.762Z,4.40
2023-05-19T10:02:51.172Z,3.67
2023-05-19T10:05:22.049Z,3.55
2023-05-19T10:07:55.056Z,3.28
2023-05-19T10:10:24.248Z,2.90
2023-05-19T10:12:55.519Z,2.97
2023-05-19T10:15:26.527Z,2.22
2023-05-19T10:17:59.444Z,2.63
2023-05-19T10:20:29.186Z,3.38
2023-05-19T10:22:58.418Z,2.85
2023-05-19T10:25:27.967Z,2.40
2023-05-19T10:28:00.183Z,2.65
2023-05-19T10:30:33.440Z,2.55
2023-05-19T10:33:07.872Z,2.90
2023-05-19T10:36:03.071Z,2.58
2023-05-19T10:38:43.107Z,2.53
2023-05-19T10:41:18.680Z,2.33
2023-05-19T10:46:22.830Z,2.15
2023-05-19T10:48:53.458Z,1.88
2023-05-19T10:51:22.584Z,1.80
2023-05-19T10:53:51.576Z,1.60
2023-05-19T10:56:33.093Z,1.70
2023-05-19T10:59:03.400Z,2.05
2023-05-19T11:01:33.854Z,2.53
2023-05-19T11:04:09.332Z,1.40
2023-05-19T11:06:38.812Z,1.50
2023-05-19T11:09:15.470Z,0.90
2023-05-19T11:11:47.662Z,0.95
2023-05-19T11:14:21.211Z,1.25
2023-05-19T11:16:51.766Z,1.40
2023-05-19T11:19:28.491Z,1.10
2023-05-19T11:21:59.081Z,1.27
2023-05-19T11:24:44.800Z,1.27
2023-05-19T11:27:27.969Z,1.00
2023-05-19T11:29:59.389Z,1.10
2023-05-19T11:32:30.324Z,1.40
2023-05-19T11:35:01.984Z,1.00
2023-05-19T11:37:35.988Z,0.95
2023-05-19T11:40:07.282Z,1.17
2023-05-19T11:42:38.134Z,1.00
2023-05-19T11:45:10.606Z,0.98
2023-05-19T11:47:56.374Z,0.85
2023-05-19T11:50:31.965Z,1.10
2023-05-19T11:53:02.384Z,1.38
2023-05-19T11:55:32.077Z,1.00
2023-05-19T11:58:05.023Z,1.00
2023-05-19T12:00:40.246Z,0.98
2023-05-19T12:03:10.454Z,1.50
2023-05-19T12:05:45.275Z,1.00
2023-05-19T12:08:14.888Z,1.00
2023-05-19T12:10:44.020Z,1.20
2023-05-19T12:13:14.098Z,0.90
2023-05-19T12:15:43.145Z,1.05
2023-05-19T12:18:12.300Z,1.05
2023-05-19T12:20:43.020Z,1.30
2023-05-19T12:23:12.287Z,0.90
2023-05-19T12:25:41.924Z,0.93
2023-05-19T12:28:11.746Z,1.00
2023-05-19T12:30:41.755Z,0.80
2023-05-19T12:33:12.044Z,0.88
2023-05-19T12:35:44.696Z,0.88
2023-05-19T12:38:15.893Z,1.10
2023-05-19T12:40:45.903Z,1.00
2023-05-19T12:43:22.233Z,1.00
2023-05-19T12:45:52.502Z,0.95
2023-05-19T12:48:23.919Z,1.00
2023-05-19T12:50:55.953Z,0.85
2023-05-19T12:53:28.442Z,1.00
2023-05-19T12:55:57.518Z,0.80
2023-05-19T12:58:26.731Z,0.90
2023-05-19T13:01:01.134Z,0.70
2023-05-19T13:03:30.424Z,0.80
2023-05-19T13:06:01.019Z,1.02
2023-05-19T13:08:30.197Z,1.08
2023-05-19T13:10:59.421Z,1.88
2023-05-19T13:13:28.485Z,1.30
2023-05-19T13:15:57.564Z,1.63
2023-05-19T13:18:27.790Z,0.70
2023-05-19T13:20:57.106Z,0.70
2023-05-19T13:23:27.826Z,0.90
2023-05-19T13:26:18.272Z,0.93
2023-05-19T13:28:48.034Z,0.80
2023-05-19T13:31:17.220Z,0.77
2023-05-19T13:33:46.621Z,0.77
2023-05-19T13:36:15.768Z,1.08
2023-05-19T13:38:46.352Z,1.00
2023-05-19T13:41:16.138Z,1.40
2023-05-19T13:43:45.330Z,0.88
2023-05-19T13:46:14.905Z,0.80
2023-05-19T13:48:44.219Z,0.82
2023-05-19T13:51:13.678Z,0.73
2023-05-19T13:53:43.259Z,1.05
2023-05-19T13:56:13.910Z,0.82
2023-05-19T13:58:43.091Z,0.80
2023-05-19T14:01:12.439Z,0.85
2023-05-19T14:03:41.982Z,0.85
2023-05-19T14:06:11.175Z,1.02
2023-05-19T14:08:40.343Z,1.15
2023-05-19T14:11:09.551Z,0.90
2023-05-19T14:13:43.254Z,0.80
2023-05-19T14:16:12.829Z,0.90
2023-05-19T14:18:42.308Z,0.77
2023-05-19T14:21:29.894Z,1.00
2023-05-19T14:23:59.221Z,0.98
2023-05-19T14:26:29.409Z,0.75
2023-05-19T14:29:00.180Z,1.00
2023-05-19T14:31:29.473Z,0.80
2023-05-19T14:33:58.800Z,0.85
2023-05-19T14:36:27.948Z,1.20
2023-05-19T14:39:15.812Z,0.73
2023-05-19T14:41:45.297Z,0.70
2023-05-19T14:44:16.007Z,1.10
2023-05-19T14:46:45.259Z,1.00
2023-05-19T14:49:14.846Z,1.13
2023-05-19T14:51:44.011Z,1.35
2023-05-19T14:54:13.117Z,1.15
2023-05-19T14:56:42.299Z,0.75
2023-05-19T14:59:11.564Z,0.80
2023-05-19T15:01:42.358Z,1.08
2023-05-19T15:07:16.682Z,1.08
2023-05-19T15:09:45.925Z,0.95
2023-05-19T15:12:15.044Z,0.77
2023-05-19T15:14:44.293Z,0.77
2023-05-19T15:17:14.883Z,1.08
2023-05-19T15:19:44.514Z,1.25
2023-05-19T15:22:13.830Z,1.40
2023-05-19T15:24:42.938Z,0.70
2023-05-19T15:27:12.244Z,0.93
2023-05-19T15:29:41.514Z,0.82
2023-05-19T15:32:10.840Z,0.60
2023-05-19T15:34:41.446Z,0.77
2023-05-19T15:37:29.110Z,0.80
2023-05-19T15:39:58.560Z,0.90
2023-05-19T15:42:30.165Z,0.70
2023-05-19T15:44:59.416Z,0.65
2023-05-19T15:47:28.683Z,0.88
2023-05-19T15:49:59.269Z,0.70
2023-05-19T15:52:29.386Z,0.80
2023-05-19T15:54:59.286Z,0.70
2023-05-19T15:57:28.448Z,0.80
2023-05-19T15:59:57.843Z,0.80
2023-05-19T16:02:27.364Z,0.80
2023-05-19T16:04:56.736Z,0.80
2023-05-19T16:07:27.506Z,0.98
2023-05-19T16:09:56.626Z,0.57
2023-05-19T16:12:26.210Z,0.90
2023-05-19T16:14:55.548Z,0.90
2023-05-19T16:17:24.662Z,0.80
2023-05-19T16:19:53.848Z,0.80
2023-05-19T16:22:24.993Z,1.00
2023-05-19T16:24:55.875Z,0.80
2023-05-19T16:27:24.976Z,0.85
2023-05-19T16:29:54.096Z,0.90
2023-05-19T16:32:23.324Z,0.80
2023-05-19T16:34:52.432Z,1.00
2023-05-19T16:37:21.533Z,0.90
2023-05-19T16:39:50.737Z,0.90
2023-05-19T16:42:21.308Z,0.88
2023-05-19T16:44:50.538Z,0.70
2023-05-19T16:47:19.969Z,1.17
2023-05-19T16:49:49.047Z,0.88
2023-05-19T16:52:18.152Z,1.00
2023-05-19T16:54:47.283Z,0.80
2023-05-19T16:57:35.201Z,0.75
2023-05-19T17:00:06.634Z,0.80
2023-05-19T17:02:35.839Z,0.80
2023-05-19T17:05:05.476Z,0.70
2023-05-19T17:07:34.752Z,0.90
2023-05-19T17:10:04.110Z,1.08
2023-05-19T17:12:33.798Z,0.77
2023-05-19T17:15:03.115Z,0.90
2023-05-19T17:17:35.492Z,1.08
2023-05-19T17:20:04.917Z,0.80
2023-05-19T17:22:34.110Z,0.70
2023-05-19T17:25:03.205Z,0.90
2023-05-19T17:27:33.874Z,0.75
2023-05-19T17:30:03.240Z,0.70
2023-05-19T17:32:39.627Z,0.73
2023-05-19T17:35:10.100Z,1.00
2023-05-19T17:37:39.404Z,0.90
2023-05-19T17:40:09.753Z,0.65
2023-05-19T17:42:38.955Z,0.80
2023-05-19T17:45:12.155Z,0.85
2023-05-19T17:47:42.768Z,0.77
2023-05-19T17:50:12.265Z,1.17
2023-05-19T17:52:42.257Z,0.70
2023-05-19T17:55:13.520Z,0.68
2023-05-19T17:57:45.591Z,0.80
2023-05-19T18:00:15.569Z,1.15
2023-05-19T18:05:34.506Z,0.90
2023-05-19T18:08:07.317Z,0.70
2023-05-19T18:10:39.091Z,1.33
2023-05-19T18:13:09.880Z,0.90
2023-05-19T18:15:59.967Z,0.90
2023-05-19T18:18:30.739Z,0.80
2023-05-19T18:20:59.935Z,0.80
2023-05-19T18:23:29.165Z,0.88
2023-05-19T18:25:58.377Z,0.75
2023-05-19T18:28:29.796Z,0.63
2023-05-19T18:31:02.158Z,0.93
2023-05-19T18:33:33.225Z,0.80
2023-05-19T18:36:02.453Z,0.73
2023-05-19T18:38:31.754Z,0.82
2023-05-19T18:41:01.897Z,0.75
2023-05-19T18:43:33.477Z,0.80
2023-05-19T18:46:03.226Z,0.88
2023-05-19T18:48:34.545Z,0.80
2023-05-19T18:51:05.203Z,1.00
2023-05-19T18:53:37.113Z,1.00
2023-05-19T18:56:06.982Z,0.90
2023-05-19T18:58:36.112Z,0.85
2023-05-19T19:01:05.340Z,0.98
2023-05-19T19:03:36.134Z,0.70
2023-05-19T19:06:05.481Z,0.90
2023-05-19T19:08:34.665Z,1.05
2023-05-19T19:11:05.346Z,1.30
2023-05-19T19:13:34.546Z,1.13
2023-05-19T19:16:04.253Z,1.00
2023-05-19T19:18:34.758Z,1.00
2023-05-19T19:21:06.573Z,1.15
2023-05-19T19:23:35.864Z,1.33
2023-05-19T19:26:08.938Z,1.10
2023-05-19T19:28:39.605Z,0.60
2023-05-19T19:31:09.212Z,1.40
2023-05-19T19:33:59.197Z,1.27
2023-05-19T19:36:49.839Z,1.73
2023-05-19T19:39:20.068Z,1.25
2023-05-19T19:41:49.352Z,0.88
2023-05-19T19:44:18.440Z,0.93
2023-05-19T19:47:07.258Z,1.20
2023-05-19T19:49:36.876Z,1.10
2023-05-19T19:52:10.447Z,1.13
2023-05-19T19:54:40.088Z,1.30
2023-05-19T19:57:09.574Z,0.95
2023-05-19T19:59:38.728Z,1.17
2023-05-19T20:02:10.247Z,1.00
2023-05-19T20:04:39.532Z,1.30
2023-05-19T20:07:10.076Z,1.10
2023-05-19T20:09:39.339Z,0.90
2023-05-19T20:12:09.144Z,1.00
2023-05-19T20:14:38.236Z,1.02
2023-05-19T20:17:07.374Z,0.95
2023-05-19T20:19:36.753Z,0.93
2023-05-19T20:22:06.194Z,1.27
2023-05-19T20:24:36.942Z,1.02
2023-05-19T20:27:07.508Z,1.25
2023-05-19T20:29:36.976Z,1.10
2023-05-19T20:32:06.435Z,0.98
2023-05-19T20:34:35.704Z,0.80
2023-05-19T20:37:05.085Z,1.25
2023-05-19T20:39:34.640Z,1.00
2023-05-19T20:42:05.324Z,1.10
2023-05-19T20:44:34.438Z,1.13
2023-05-19T20:47:04.407Z,0.98
2023-05-19T20:49:34.519Z,1.30
2023-05-19T20:52:04.026Z,0.80
2023-05-19T20:54:33.043Z,1.33
2023-05-19T20:57:06.503Z,1.10
2023-05-19T20:59:37.089Z,0.98
2023-05-19T21:02:07.881Z,1.02
2023-05-19T21:04:37.941Z,1.10
2023-05-19T21:07:07.285Z,1.00
2023-05-19T21:09:36.388Z,1.10
2023-05-19T21:12:06.247Z,1.15
2023-05-19T21:14:36.744Z,0.98
2023-05-19T21:17:07.255Z,0.90
2023-05-19T21:19:38.301Z,1.02
2023-05-19T21:22:07.455Z,1.00
2023-05-19T21:24:36.698Z,1.35
2023-05-19T21:27:06.543Z,1.23
2023-05-19T21:29:37.153Z,1.00
2023-05-19T21:32:06.887Z,1.10
2023-05-19T21:34:36.172Z,0.80
2023-05-19T21:37:05.446Z,0.80
2023-05-19T21:39:34.566Z,0.98
2023-05-19T21:42:04.128Z,1.00
2023-05-19T21:44:33.177Z,1.17
2023-05-19T21:47:03.824Z,0.75
2023-05-19T21:49:32.909Z,0.73
2023-05-19T21:52:03.317Z,0.93
2023-05-19T21:54:32.830Z,0.95
2023-05-19T21:57:02.498Z,1.08
2023-05-19T21:59:31.724Z,1.55
2023-05-19T22:02:00.874Z,1.10
2023-05-19T22:04:31.713Z,1.50
2023-05-19T22:07:00.781Z,1.08
2023-05-19T22:09:30.174Z,1.15
2023-05-19T22:11:59.281Z,1.45
2023-05-19T22:14:28.404Z,1.67
2023-05-19T22:16:57.544Z,2.05
2023-05-19T22:19:26.667Z,2.13
2023-05-19T22:22:09.773Z,1.52
2023-05-19T22:24:42.023Z,1.58
2023-05-19T22:27:11.779Z,0.90
2023-05-19T22:29:42.888Z,1.25
2023-05-19T22:32:12.315Z,1.25
2023-05-19T22:34:41.814Z,1.35
2023-05-19T22:37:12.506Z,1.13
2023-05-19T22:39:41.886Z,1.10
2023-05-19T22:42:11.251Z,0.90
2023-05-19T22:44:40.342Z,1.35
2023-05-19T22:47:13.624Z,1.20
2023-05-19T22:49:43.689Z,0.88
2023-05-19T22:52:14.454Z,1.02
2023-05-19T22:54:43.572Z,1.02
2023-05-19T22:57:12.974Z,1.30
2023-05-19T22:59:42.364Z,1.30
2023-05-19T23:02:11.435Z,1.45
2023-05-19T23:04:40.519Z,1.17
2023-05-19T23:07:09.531Z,1.15
2023-05-19T23:09:39.995Z,1.00
2023-05-19T23:12:09.145Z,1.17
2023-05-19T23:14:38.175Z,1.17
2023-05-19T23:17:07.437Z,1.20
2023-05-19T23:19:37.098Z,1.00
2023-05-19T23:22:06.659Z,1.30
2023-05-19T23:24:35.627Z,1.50
2023-05-19T23:27:06.656Z,1.40
2023-05-19T23:29:35.637Z,1.38
2023-05-19T23:32:04.835Z,1.30
2023-05-19T23:34:33.906Z,1.00
2023-05-19T23:37:03.079Z,1.50
2023-05-19T23:39:32.060Z,1.27
2023-05-19T23:42:01.086Z,1.10
2023-05-19T23:44:31.658Z,1.05
2023-05-19T23:47:01.187Z,1.13
2023-05-19T23:49:30.315Z,1.20
2023-05-19T23:51:59.332Z,1.10
2023-05-19T23:54:30.412Z,1.40
2023-05-19T23:56:59.660Z,1.40
2023-05-19T23:59:28.688Z,1.05
